KR-0418 weather

Doosan We’ve Poseidon 2 Apartments Heliports
Busan, Busan Gwang'yeogsi, South Korea

Public forecast

Using degrees Celsius for public forecast. Weather courtesy of forecast.io.

Closest aviation weather report (METAR) to Doosan We’ve Poseidon 2 Apartments Heliports

Closest report is Gimhae International Airport, 6.7 nm (12.4 km) WNW. Retrieved 2020/08/08 05:00 UTC (7 minutes ago):

RKPK 080500Z 17009KT 9000 -RA FEW010 BKN015 OVC025 26/24 Q1004

Closest aviation forecast (TAF) to Doosan We’ve Poseidon 2 Apartments Heliports

Closest forecast is Gimhae International Airport, 6.7 nm (12.4 km) WNW. Retrieved 2020-08-08 00:00 UTC (5 hours ago):

TAF RKPK 072300Z 0800/0906 19010KT 4800 -RA BR BKN015 OVC030 TX28/0806Z TN24/0821Z BECMG 0803/0804 8000 -RA SCT015 BKN030 BECMG 0808/0809 18006KT